createdAt,value
2023-01-26T04:12:32.108Z,0.20
2023-01-26T04:15:37.975Z,0.30
2023-01-26T04:18:27.654Z,0.40
2023-01-26T04:21:15.019Z,0.20
2023-01-26T04:23:51.543Z,0.20
2023-01-26T04:26:38.237Z,0.30
2023-01-26T04:29:24.633Z,0.20
2023-01-26T04:32:05.691Z,0.20
2023-01-26T04:34:42.611Z,0.40
2023-01-26T04:37:23.034Z,0.30
2023-01-26T04:40:02.797Z,0.30
2023-01-26T04:43:11.418Z,0.20
2023-01-26T04:45:57.888Z,0.20
2023-01-26T04:48:47.384Z,0.40
2023-01-26T04:51:26.046Z,0.30
2023-01-26T04:54:01.117Z,0.30
2023-01-26T04:56:55.498Z,0.20
2023-01-26T04:59:29.241Z,0.30
2023-01-26T05:02:07.061Z,0.30
2023-01-26T05:04:59.885Z,0.30
2023-01-26T05:07:32.846Z,0.30
2023-01-26T05:10:05.850Z,0.30
2023-01-26T05:13:33.647Z,0.20
2023-01-26T05:16:14.585Z,0.20
2023-01-26T05:19:13.164Z,0.20
2023-01-26T05:22:06.140Z,0.20
2023-01-26T05:24:48.793Z,0.30
2023-01-26T05:27:41.859Z,0.30
2023-01-26T05:30:18.109Z,0.20
2023-01-26T05:33:05.797Z,0.20
2023-01-26T05:35:47.007Z,0.20
2023-01-26T05:38:28.817Z,0.20
2023-01-26T05:41:15.983Z,0.40
2023-01-26T05:44:32.631Z,0.40
2023-01-26T05:47:27.187Z,0.20
2023-01-26T05:50:14.226Z,0.50
2023-01-26T05:53:24.646Z,0.30
2023-01-26T05:56:02.378Z,0.20
2023-01-26T05:58:35.971Z,0.40
2023-01-26T06:01:09.713Z,0.20
2023-01-26T06:03:54.109Z,0.30
2023-01-26T06:06:28.729Z,0.30
2023-01-26T06:09:42.596Z,0.30
2023-01-26T06:12:36.923Z,0.30
2023-01-26T06:15:22.872Z,0.30
2023-01-26T06:18:06.194Z,0.30
2023-01-26T06:20:44.403Z,0.30
2023-01-26T06:23:15.280Z,0.20
2023-01-26T06:25:48.793Z,0.30
2023-01-26T06:28:23.211Z,0.20
2023-01-26T06:31:24.663Z,0.30
2023-01-26T06:33:57.404Z,0.40
2023-01-26T06:36:38.561Z,0.50
2023-01-26T06:39:17.129Z,0.40
2023-01-26T06:41:57.746Z,0.30
2023-01-26T06:44:35.181Z,0.30
2023-01-26T06:47:11.446Z,0.50
2023-01-26T06:49:43.601Z,0.40
2023-01-26T06:52:39.625Z,0.30
2023-01-26T06:55:37.724Z,0.30
2023-01-26T06:58:30.457Z,0.50
2023-01-26T07:01:27.237Z,0.30
2023-01-26T07:03:56.971Z,0.40
2023-01-26T07:06:43.144Z,0.40
2023-01-26T07:09:20.571Z,0.40
2023-01-26T07:11:53.448Z,0.50
2023-01-26T07:14:31.162Z,0.40
2023-01-26T07:17:11.390Z,0.40
2023-01-26T07:19:44.244Z,0.40
2023-01-26T07:22:26.745Z,0.50
2023-01-26T07:25:03.699Z,0.60
2023-01-26T07:27:32.398Z,0.80
2023-01-26T07:30:16.496Z,0.60
2023-01-26T07:32:51.883Z,0.60
2023-01-26T07:35:22.903Z,0.60
2023-01-26T07:37:53.451Z,0.60
2023-01-26T07:40:26.548Z,0.70
2023-01-26T07:42:57.177Z,0.70
2023-01-26T07:45:48.698Z,0.70
2023-01-26T07:48:22.675Z,1.50
2023-01-26T07:50:58.235Z,1.70
2023-01-26T07:53:37.807Z,1.70
2023-01-26T07:56:20.438Z,1.50
2023-01-26T07:58:53.810Z,1.40
2023-01-26T08:01:45.516Z,1.20
2023-01-26T08:04:21.352Z,1.10
2023-01-26T08:06:52.666Z,1.10
2023-01-26T08:09:38.793Z,1.10
2023-01-26T08:12:15.081Z,1.30
2023-01-26T08:14:47.467Z,1.20
2023-01-26T08:17:38.704Z,1.10
2023-01-26T08:20:15.711Z,1.20
2023-01-26T08:22:44.464Z,1.20
2023-01-26T08:25:12.965Z,1.30
2023-01-26T08:27:43.340Z,1.30
2023-01-26T08:30:17.675Z,1.30
2023-01-26T08:32:47.679Z,1.40
2023-01-26T08:35:16.375Z,1.40
2023-01-26T08:37:48.535Z,1.40
2023-01-26T08:40:24.953Z,1.50
2023-01-26T08:42:55.536Z,1.40
2023-01-26T08:45:26.558Z,1.40
2023-01-26T08:48:05.029Z,1.40
2023-01-26T08:50:38.191Z,1.40
2023-01-26T08:53:12.545Z,1.40
2023-01-26T08:55:43.412Z,1.40
2023-01-26T08:58:12.284Z,1.40
2023-01-26T09:00:43.052Z,1.40
2023-01-26T09:03:14.605Z,1.40
2023-01-26T09:05:43.260Z,1.40
2023-01-26T09:08:16.479Z,1.40
2023-01-26T09:10:47.443Z,1.50
2023-01-26T09:13:21.800Z,1.40
2023-01-26T09:15:51.537Z,1.40
2023-01-26T09:18:21.632Z,1.40
2023-01-26T09:20:51.317Z,1.50
2023-01-26T09:23:20.829Z,1.50
2023-01-26T09:25:55.058Z,1.60
2023-01-26T09:28:23.709Z,1.60
2023-01-26T09:30:52.468Z,1.50
2023-01-26T09:33:25.661Z,1.50
2023-01-26T09:35:56.918Z,1.50
2023-01-26T09:38:29.472Z,1.50
2023-01-26T09:41:11.771Z,1.60
2023-01-26T09:43:46.953Z,1.60
2023-01-26T09:46:26.659Z,1.60
2023-01-26T09:49:23.464Z,1.60
2023-01-26T09:52:00.364Z,1.50
2023-01-26T09:54:39.017Z,1.60
2023-01-26T09:57:27.483Z,1.60
2023-01-26T10:00:04.043Z,1.60
2023-01-26T10:02:54.089Z,1.60
2023-01-26T10:05:34.342Z,1.60
2023-01-26T10:08:12.199Z,1.60
2023-01-26T10:10:46.980Z,1.70
2023-01-26T10:13:21.134Z,1.70
2023-01-26T10:16:01.117Z,1.70
2023-01-26T10:18:37.124Z,1.70
2023-01-26T10:21:11.546Z,1.90
2023-01-26T10:23:59.684Z,1.60
2023-01-26T10:26:35.087Z,1.60
2023-01-26T10:29:07.152Z,1.60
2023-01-26T10:31:36.181Z,1.60
2023-01-26T10:34:14.519Z,1.60
2023-01-26T10:36:48.102Z,1.60
2023-01-26T10:39:19.115Z,1.70
2023-01-26T10:42:05.697Z,1.70
2023-01-26T10:44:47.897Z,1.70
2023-01-26T10:47:21.714Z,1.70
2023-01-26T10:49:51.065Z,1.80
2023-01-26T10:52:26.063Z,1.80
2023-01-26T10:55:12.546Z,1.70
2023-01-26T10:57:47.612Z,1.70
2023-01-26T11:00:32.159Z,1.70
2023-01-26T11:03:08.723Z,1.70
2023-01-26T11:05:48.107Z,1.70
2023-01-26T11:08:53.427Z,1.70
2023-01-26T11:11:28.824Z,1.60
2023-01-26T11:14:15.989Z,1.70
2023-01-26T11:16:48.936Z,1.70
2023-01-26T11:19:43.900Z,1.70
2023-01-26T11:22:20.054Z,1.80
2023-01-26T11:25:01.617Z,1.80
2023-01-26T11:27:44.104Z,1.80
2023-01-26T11:30:42.535Z,1.80
2023-01-26T11:33:19.877Z,1.70
2023-01-26T11:35:55.509Z,1.80
2023-01-26T11:38:39.498Z,1.90
2023-01-26T11:41:24.705Z,1.80
2023-01-26T11:44:21.055Z,1.70
2023-01-26T11:47:15.693Z,1.60
2023-01-26T11:50:07.001Z,1.80
2023-01-26T11:52:48.063Z,1.80
2023-01-26T11:55:26.806Z,1.80
2023-01-26T11:58:15.284Z,1.70
2023-01-26T12:00:49.566Z,1.80
2023-01-26T12:03:26.066Z,1.70
2023-01-26T12:06:04.032Z,1.60
2023-01-26T12:08:39.587Z,1.80
2023-01-26T12:11:28.833Z,1.70
2023-01-26T12:14:22.112Z,1.60
2023-01-26T12:17:26.842Z,1.60
2023-01-26T12:20:06.814Z,1.60
2023-01-26T12:22:48.020Z,1.70
2023-01-26T12:25:31.899Z,1.50
2023-01-26T12:28:12.138Z,1.60
2023-01-26T12:30:52.877Z,1.60
2023-01-26T12:33:29.567Z,1.60
2023-01-26T12:36:33.639Z,1.60
2023-01-26T12:39:15.460Z,1.60
2023-01-26T12:42:02.523Z,1.50
2023-01-26T12:44:38.471Z,1.60
2023-01-26T12:47:14.676Z,1.60
2023-01-26T12:49:51.890Z,1.60
2023-01-26T12:52:27.654Z,1.60
2023-01-26T12:55:00.923Z,1.60
2023-01-26T12:57:36.701Z,1.60
2023-01-26T13:00:21.568Z,1.60
2023-01-26T13:03:03.675Z,1.60
2023-01-26T13:05:41.834Z,1.50
2023-01-26T13:08:51.611Z,1.60
2023-01-26T13:11:47.981Z,1.60
2023-01-26T13:14:38.954Z,1.50
2023-01-26T13:18:02.532Z,1.50
2023-01-26T13:20:57.670Z,1.40
2023-01-26T13:23:42.226Z,1.50
2023-01-26T13:26:45.722Z,1.40
2023-01-26T13:29:35.955Z,1.30
2023-01-26T13:32:37.981Z,1.60
2023-01-26T13:35:13.581Z,1.30
2023-01-26T13:37:50.578Z,1.30
2023-01-26T13:40:23.528Z,1.30
2023-01-26T13:42:57.733Z,1.30
2023-01-26T13:45:43.402Z,1.30
2023-01-26T13:48:21.021Z,1.30
2023-01-26T13:51:05.316Z,1.20
2023-01-26T13:53:44.427Z,1.20
2023-01-26T13:56:27.041Z,1.10
2023-01-26T13:59:03.972Z,1.20
2023-01-26T14:01:38.733Z,1.10
2023-01-26T14:04:14.186Z,1.20
2023-01-26T14:06:53.386Z,1.20
2023-01-26T14:09:28.851Z,1.20
2023-01-26T14:12:00.976Z,1.10
2023-01-26T14:14:34.493Z,1.20
2023-01-26T14:17:09.101Z,1.30
2023-01-26T14:19:45.676Z,1.20
2023-01-26T14:22:22.588Z,1.20
2023-01-26T14:24:58.066Z,1.20
2023-01-26T14:27:35.293Z,1.20
2023-01-26T14:30:21.441Z,1.20
2023-01-26T14:32:50.459Z,1.00
2023-01-26T14:35:29.659Z,1.10
2023-01-26T14:38:16.229Z,1.10
2023-01-26T14:40:50.860Z,1.10
2023-01-26T14:43:20.300Z,1.00
2023-01-26T14:45:58.406Z,1.10
2023-01-26T14:48:34.219Z,1.10
2023-01-26T14:51:09.318Z,1.00
2023-01-26T14:53:38.370Z,0.90
2023-01-26T14:56:20.024Z,1.00
2023-01-26T14:58:57.263Z,0.90
2023-01-26T15:01:28.779Z,0.90
2023-01-26T15:04:20.060Z,0.90
2023-01-26T15:06:58.234Z,0.90
2023-01-26T15:09:28.585Z,1.10
2023-01-26T15:12:19.532Z,0.90
2023-01-26T15:14:51.749Z,0.90
2023-01-26T15:17:41.750Z,0.90
2023-01-26T15:20:41.662Z,0.80
2023-01-26T15:23:25.940Z,0.80
2023-01-26T15:26:10.234Z,0.70
2023-01-26T15:28:44.603Z,0.70
2023-01-26T15:31:29.032Z,0.70
2023-01-26T15:34:01.777Z,0.90
2023-01-26T15:36:41.718Z,0.80
2023-01-26T15:39:16.628Z,0.80
2023-01-26T15:41:47.080Z,0.70
2023-01-26T15:44:20.437Z,0.90
2023-01-26T15:46:51.885Z,0.80
2023-01-26T15:49:23.480Z,0.80
2023-01-26T15:51:54.000Z,0.90
2023-01-26T15:54:24.660Z,0.90
2023-01-26T15:56:53.322Z,0.70
2023-01-26T15:59:26.369Z,0.70
2023-01-26T16:01:55.006Z,0.70
2023-01-26T16:04:30.472Z,0.70
2023-01-26T16:07:03.919Z,0.60
2023-01-26T16:09:32.493Z,0.80
2023-01-26T16:12:03.173Z,0.60
2023-01-26T16:14:33.022Z,0.60
2023-01-26T16:17:01.714Z,0.60
2023-01-26T16:19:35.646Z,0.60
2023-01-26T16:22:11.113Z,0.60
2023-01-26T16:24:42.632Z,0.60
2023-01-26T16:27:14.045Z,0.60
2023-01-26T16:29:44.090Z,0.70
2023-01-26T16:32:28.293Z,0.60
2023-01-26T16:35:01.855Z,0.60
2023-01-26T16:37:30.453Z,0.60
2023-01-26T16:40:01.298Z,0.60
2023-01-26T16:42:30.228Z,0.60
2023-01-26T16:45:00.516Z,0.60
2023-01-26T16:47:29.062Z,0.60
2023-01-26T16:49:59.042Z,0.50
2023-01-26T16:52:32.618Z,0.60
2023-01-26T16:55:13.004Z,0.60
2023-01-26T16:57:52.215Z,0.40
2023-01-26T17:00:43.456Z,0.50
2023-01-26T17:03:17.252Z,0.60
2023-01-26T17:05:47.948Z,0.50
2023-01-26T17:08:24.113Z,0.70
2023-01-26T17:11:02.388Z,0.50
2023-01-26T17:13:37.860Z,0.50
2023-01-26T17:16:36.544Z,0.50
2023-01-26T17:19:09.357Z,0.60
2023-01-26T17:21:47.923Z,0.50
2023-01-26T17:24:26.600Z,0.50
2023-01-26T17:27:02.324Z,0.60
2023-01-26T17:29:41.701Z,0.60
2023-01-26T17:32:30.710Z,0.60
2023-01-26T17:35:06.141Z,0.50
2023-01-26T17:37:44.227Z,0.50
2023-01-26T17:40:17.276Z,0.50
2023-01-26T17:42:53.157Z,0.50
2023-01-26T17:45:27.169Z,0.50
2023-01-26T17:47:57.368Z,0.60
2023-01-26T17:50:31.031Z,0.70
2023-01-26T17:53:18.672Z,0.50
2023-01-26T17:56:08.204Z,0.60
2023-01-26T17:58:39.131Z,0.50
2023-01-26T18:01:14.757Z,0.50
2023-01-26T18:03:48.301Z,0.50
2023-01-26T18:06:25.749Z,0.40
2023-01-26T18:08:54.529Z,0.50
2023-01-26T18:11:31.358Z,0.30
2023-01-26T18:14:10.061Z,0.30
2023-01-26T18:16:50.571Z,0.30
2023-01-26T18:19:22.161Z,0.40
2023-01-26T18:21:58.857Z,0.40
2023-01-26T18:24:31.856Z,0.30
2023-01-26T18:27:02.682Z,0.40
2023-01-26T18:29:35.107Z,0.40
2023-01-26T18:32:07.647Z,0.30
2023-01-26T18:34:39.125Z,0.40
2023-01-26T18:37:14.901Z,0.40
2023-01-26T18:39:51.959Z,0.40
2023-01-26T18:42:32.309Z,0.40
2023-01-26T18:45:05.658Z,0.30
2023-01-26T18:47:40.378Z,0.30
2023-01-26T18:50:23.332Z,0.40
2023-01-26T18:53:15.865Z,0.30
2023-01-26T18:56:09.637Z,0.30
2023-01-26T18:58:47.560Z,0.40
2023-01-26T19:01:27.307Z,0.50
2023-01-26T19:03:58.249Z,0.60
2023-01-26T19:06:30.997Z,0.30
2023-01-26T19:09:04.570Z,0.50
2023-01-26T19:11:37.090Z,0.40
2023-01-26T19:14:13.044Z,0.40
2023-01-26T19:16:49.608Z,0.50
2023-01-26T19:19:48.786Z,0.40
2023-01-26T19:22:55.540Z,0.50
2023-01-26T19:25:25.379Z,0.50
2023-01-26T19:28:11.230Z,0.40
2023-01-26T19:30:47.750Z,0.40
2023-01-26T19:33:31.998Z,0.40
2023-01-26T19:36:09.045Z,0.40
2023-01-26T19:38:49.491Z,0.30
2023-01-26T19:41:30.169Z,0.30
2023-01-26T19:44:16.468Z,0.40
2023-01-26T19:46:53.145Z,0.30
2023-01-26T19:49:24.205Z,0.40
2023-01-26T19:52:07.742Z,0.50
2023-01-26T19:54:42.986Z,0.40
2023-01-26T19:57:20.185Z,0.30
2023-01-26T19:59:49.207Z,0.30
2023-01-26T20:02:44.560Z,0.30
2023-01-26T20:05:22.939Z,0.40
2023-01-26T20:07:56.406Z,0.30
2023-01-26T20:10:40.992Z,0.30
2023-01-26T20:13:12.642Z,0.30
2023-01-26T20:15:41.392Z,0.20
2023-01-26T20:18:13.344Z,0.30
2023-01-26T20:20:45.643Z,0.30
2023-01-26T20:23:22.036Z,0.30
2023-01-26T20:26:22.294Z,0.30
2023-01-26T20:28:58.742Z,0.30
2023-01-26T20:31:31.983Z,0.50
2023-01-26T20:34:13.524Z,0.40
2023-01-26T20:36:45.092Z,0.30
2023-01-26T20:39:31.266Z,0.30
2023-01-26T20:42:03.804Z,0.30
2023-01-26T20:44:49.861Z,0.30
2023-01-26T20:47:18.756Z,0.30
2023-01-26T20:49:51.295Z,0.30
2023-01-26T20:52:24.666Z,0.20
2023-01-26T20:55:08.038Z,0.20
2023-01-26T20:57:47.196Z,0.20
2023-01-26T21:00:23.673Z,0.40
2023-01-26T21:02:55.504Z,0.20
2023-01-26T21:05:27.076Z,0.20
2023-01-26T21:07:59.512Z,0.30
2023-01-26T21:10:32.327Z,0.40
2023-01-26T21:13:03.342Z,0.20
2023-01-26T21:15:38.036Z,0.20
2023-01-26T21:18:08.321Z,0.30
2023-01-26T21:20:37.087Z,0.20
2023-01-26T21:23:08.188Z,0.30
2023-01-26T21:25:42.563Z,0.20
2023-01-26T21:28:24.151Z,0.20
2023-01-26T21:31:08.045Z,0.10
2023-01-26T21:33:43.689Z,0.20
2023-01-26T21:36:25.374Z,0.20
2023-01-26T21:38:58.060Z,0.30
2023-01-26T21:41:48.537Z,0.20
2023-01-26T21:44:22.082Z,0.20
2023-01-26T21:46:53.721Z,0.20
2023-01-26T21:49:30.724Z,0.20
2023-01-26T21:52:21.053Z,0.20
2023-01-26T21:54:51.409Z,0.20
2023-01-26T21:57:42.285Z,0.30
2023-01-26T22:00:17.617Z,0.50
2023-01-26T22:02:51.615Z,0.20
2023-01-26T22:05:23.565Z,0.20
2023-01-26T22:07:56.296Z,0.30
2023-01-26T22:10:27.708Z,0.20
2023-01-26T22:12:58.442Z,0.20
2023-01-26T22:15:30.895Z,0.10
2023-01-26T22:18:01.020Z,0.20
2023-01-26T22:20:34.863Z,0.10
2023-01-26T22:23:18.173Z,0.10
2023-01-26T22:25:51.848Z,0.20
2023-01-26T22:28:20.655Z,0.20
2023-01-26T22:31:03.410Z,0.20
2023-01-26T22:33:39.127Z,0.20
2023-01-26T22:36:15.393Z,0.00
2023-01-26T22:38:44.485Z,0.00
2023-01-26T22:41:16.561Z,0.00
2023-01-26T22:43:51.454Z,0.10
2023-01-26T22:46:31.261Z,0.00
2023-01-26T22:49:06.047Z,0.00
2023-01-26T22:51:37.607Z,0.00
2023-01-26T22:54:07.206Z,0.10
2023-01-26T22:56:38.186Z,0.00
2023-01-26T22:59:06.870Z,0.20
2023-01-26T23:01:49.939Z,0.00
2023-01-26T23:04:20.584Z,0.10
2023-01-26T23:06:55.118Z,0.10
2023-01-26T23:09:51.535Z,0.10
2023-01-26T23:12:19.785Z,0.00
2023-01-26T23:14:53.780Z,-0.10
2023-01-26T23:17:24.056Z,0.00
2023-01-26T23:19:54.826Z,0.00
2023-01-26T23:22:25.375Z,0.00
2023-01-26T23:25:32.334Z,0.10
2023-01-26T23:28:08.686Z,0.00
2023-01-26T23:30:40.373Z,0.10
2023-01-26T23:33:14.034Z,0.00
2023-01-26T23:35:42.878Z,0.10
2023-01-26T23:38:21.778Z,0.10
2023-01-26T23:40:52.497Z,0.10
2023-01-26T23:43:22.787Z,0.10
2023-01-26T23:45:52.717Z,0.10
2023-01-26T23:48:27.419Z,0.10
2023-01-26T23:51:00.250Z,0.10
2023-01-26T23:53:30.824Z,0.10
2023-01-26T23:56:08.824Z,0.00
2023-01-26T23:58:42.012Z,0.00
